Time;durP1;ratioP1;P1;durP2;ratioP2;P2;SDS_P1;SDS_P2;PMS_P1;PMS_P2;Temp;Humidity;BMP_temperature;BMP_pressure;BME280_temperature;BME280_humidity;BME280_pressure;Samples;Min_cycle;Max_cycle;Signal;HPM_P1;HPM_P2
2022/09/16 00:00:00;;;;;;;;;;;;;;;11.63;100.00;98818.75;3055970;19;20074;-50
2022/09/16 00:01:11;;;;;;;;;;;;;;;11.67;100.00;98809.50;3056857;19;20355;-50
2022/09/16 00:02:13;;;;;;;;;;;;;;;11.72;100.00;98812.56;3056882;19;19938;-52
2022/09/16 00:03:18;;;;;;;;;;;;;;;11.76;100.00;98813.16;3056394;19;19994;-52
2022/09/16 00:04:19;;;;;;;;;;;;;;;11.80;100.00;98809.22;3056625;19;20357;-50
2022/09/16 00:05:24;;;;;;;;;;;;;;;11.83;100.00;98815.09;3056513;19;19944;-49
2022/09/16 00:06:29;;;;;;;;;;;;;;;11.81;100.00;98803.75;3056249;19;19922;-51
2022/09/16 00:07:33;;;;;;;;;;;;;;;11.88;100.00;98812.84;3056304;19;19923;-49
2022/09/16 00:08:37;;;;;;;;;;;;;;;11.92;100.00;98809.91;3056734;19;19931;-49
2022/09/16 00:09:41;;;;;;;;;;;;;;;11.94;100.00;98810.59;3056615;19;20390;-50
2022/09/16 00:10:43;;;;;;;;;;;;;;;11.95;100.00;98818.50;3056684;19;19922;-49
2022/09/16 00:11:48;;;;;;;;;;;;;;;11.96;100.00;98813.94;3056476;19;20306;-52
2022/09/16 00:12:50;;;;;;;;;;;;;;;11.96;100.00;98819.31;3056470;19;20319;-48
2022/09/16 00:13:54;;;;;;;;;;;;;;;11.96;100.00;98820.16;3056476;19;20306;-49
2022/09/16 00:14:56;;;;;;;;;;;;;;;11.95;100.00;98817.66;3056281;19;20226;-51
2022/09/16 00:16:01;;;;;;;;;;;;;;;11.93;100.00;98827.63;3056383;19;19954;-50
2022/09/16 00:17:03;;;;;;;;;;;;;;;11.92;100.00;98817.94;3056304;19;20269;-50
2022/09/16 00:18:07;;;;;;;;;;;;;;;11.88;100.00;98812.84;3056978;19;19990;-51
2022/09/16 00:19:09;;;;;;;;;;;;;;;11.81;100.00;98810.91;3056372;19;20453;-51
2022/09/16 00:20:13;;;;;;;;;;;;;;;11.84;100.00;98827.47;3056156;19;19923;-52
2022/09/16 00:21:16;;;;;;;;;;;;;;;11.82;100.00;98824.13;3056538;19;19919;-50
2022/09/16 00:22:20;;;;;;;;;;;;;;;11.78;100.00;98828.06;3056678;19;19918;-51
2022/09/16 00:23:22;;;;;;;;;;;;;;;11.77;100.00;98834.41;3056193;19;19939;-49
2022/09/16 00:24:27;;;;;;;;;;;;;;;11.74;100.00;98834.63;3056654;19;19927;-50
2022/09/16 00:25:29;;;;;;;;;;;;;;;11.73;100.00;98835.63;3056364;19;20000;-49
2022/09/16 00:26:33;;;;;;;;;;;;;;;11.71;100.00;98832.25;3056243;19;20649;-51
2022/09/16 00:27:35;;;;;;;;;;;;;;;11.70;100.00;98833.25;3056355;19;19923;-52
2022/09/16 00:28:39;;;;;;;;;;;;;;;11.70;100.00;98835.94;3056446;19;20346;-50
2022/09/16 00:29:41;;;;;;;;;;;;;;;11.70;100.00;98838.59;3056365;19;19918;-51
2022/09/16 00:30:46;;;;;;;;;;;;;;;11.70;100.00;98841.28;3056331;19;19930;-51
2022/09/16 00:31:50;;;;;;;;;;;;;;;11.69;100.00;98836.91;3056407;19;19982;-51
2022/09/16 00:32:52;;;;;;;;;;;;;;;11.69;100.00;98850.28;3056358;19;20330;-50
2022/09/16 00:33:57;;;;;;;;;;;;;;;11.68;100.00;98837.91;3055332;19;19931;-50
2022/09/16 00:34:59;;;;;;;;;;;;;;;11.66;100.00;98845.22;3055540;19;19927;-51
2022/09/16 00:36:07;;;;;;;;;;;;;;;11.64;100.00;98836.47;3055918;19;19938;-51
2022/09/16 00:37:08;;;;;;;;;;;;;;;11.62;100.00;98842.94;3056549;19;20404;-50
2022/09/16 00:38:14;;;;;;;;;;;;;;;11.60;100.00;98848.44;3056033;19;19923;-50
2022/09/16 00:39:18;;;;;;;;;;;;;;;11.58;100.00;98845.06;3056492;19;20326;-51
2022/09/16 00:40:20;;;;;;;;;;;;;;;11.57;100.00;98848.72;3056025;19;19997;-50
2022/09/16 00:41:29;;;;;;;;;;;;;;;11.55;100.00;98843.53;3056314;19;19942;-52
2022/09/16 00:42:35;;;;;;;;;;;;;;;11.53;100.00;98844.63;3056270;19;19922;-51
2022/09/16 00:43:50;;;;;;;;;;;;;;;11.51;100.00;98842.09;3055863;19;20305;-49
2022/09/16 00:45:02;;;;;;;;;;;;;;;11.50;100.00;98850.25;3055532;19;19922;-49
2022/09/16 00:46:06;;;;;;;;;;;;;;;11.48;100.00;98845.06;3056050;19;19923;-51
2022/09/16 00:47:08;;;;;;;;;;;;;;;11.46;100.00;98843.53;3056600;19;20472;-48
2022/09/16 00:48:14;;;;;;;;;;;;;;;11.46;100.00;98854.22;3055293;19;19923;-49
2022/09/16 00:49:17;;;;;;;;;;;;;;;11.47;100.00;98848.72;3055241;19;20394;-49
2022/09/16 00:50:24;;;;;;;;;;;;;;;11.48;100.00;98837.03;3054955;19;20628;-51
2022/09/16 00:51:25;;;;;;;;;;;;;;;11.54;100.00;98846.34;3056179;19;19982;-51
2022/09/16 00:52:30;;;;;;;;;;;;;;;11.60;100.00;98845.75;3055832;19;19927;-49
2022/09/16 00:53:33;;;;;;;;;;;;;;;11.63;100.00;98840.13;3056345;19;20426;-51
2022/09/16 00:54:37;;;;;;;;;;;;;;;11.68;100.00;98840.56;3055089;19;19982;-50
2022/09/16 00:55:42;;;;;;;;;;;;;;;11.72;100.00;98843.78;3055199;19;19996;-50
2022/09/16 00:56:44;;;;;;;;;;;;;;;11.75;100.00;98844.38;3055477;19;19943;-50
2022/09/16 00:57:48;;;;;;;;;;;;;;;11.80;100.00;98846.63;3055378;19;19923;-49
2022/09/16 00:59:00;;;;;;;;;;;;;;;11.83;100.00;98844.50;3055060;19;19936;-50
2022/09/16 01:00:06;;;;;;;;;;;;;;;11.87;100.00;98837.91;3056059;19;19927;-50
2022/09/16 01:01:08;;;;;;;;;;;;;;;11.92;100.00;98840.16;3056081;19;19935;-50
2022/09/16 01:02:13;;;;;;;;;;;;;;;11.99;100.00;98840.41;3056068;19;20350;-49
2022/09/16 01:03:15;;;;;;;;;;;;;;;12.03;100.00;98841.81;3054912;19;19926;-51
2022/09/16 01:04:21;;;;;;;;;;;;;;;12.07;100.00;98841.41;3054828;19;19987;-50
2022/09/16 01:05:24;;;;;;;;;;;;;;;12.14;100.00;98836.31;3054842;19;19931;-48
2022/09/16 01:06:29;;;;;;;;;;;;;;;12.16;100.00;98837.00;3054937;19;20019;-48
2022/09/16 01:07:33;;;;;;;;;;;;;;;12.19;100.00;98837.56;3055313;19;19950;-51
2022/09/16 01:08:38;;;;;;;;;;;;;;;12.24;100.00;98829.09;3054891;19;19969;-48
2022/09/16 01:09:40;;;;;;;;;;;;;;;12.26;100.00;98845.84;3055016;19;19919;-49
2022/09/16 01:10:45;;;;;;;;;;;;;;;12.26;100.00;98840.50;3055491;19;19935;-51
2022/09/16 01:11:46;;;;;;;;;;;;;;;12.26;100.00;98845.84;3056123;19;19922;-51
2022/09/16 01:12:52;;;;;;;;;;;;;;;12.25;100.00;98853.03;3055667;19;19936;-50
2022/09/16 01:14:51;;;;;;;;;;;;;;;12.21;100.00;98856.13;3055135;19;20393;-51
2022/09/16 01:15:19;;;;;;;;;;;;;;;12.17;100.00;98862.75;3054673;19;19931;-49
2022/09/16 01:16:28;;;;;;;;;;;;;;;12.13;100.00;98858.69;3054975;19;20412;-50
2022/09/16 01:17:52;;;;;;;;;;;;;;;12.08;100.00;98867.13;3054741;19;19923;-48
2022/09/16 01:19:14;;;;;;;;;;;;;;;12.02;100.00;98872.22;3055560;19;20358;-51
2022/09/16 01:20:16;;;;;;;;;;;;;;;11.96;100.00;98873.59;3055056;19;19951;-49
2022/09/16 01:21:27;;;;;;;;;;;;;;;11.93;100.00;98881.09;3054765;19;20353;-50
2022/09/16 01:22:48;;;;;;;;;;;;;;;11.85;100.00;98882.63;3055259;19;19919;-51
2022/09/16 01:24:08;;;;;;;;;;;;;;;11.79;100.00;98872.53;3055215;19;19915;-49
2022/09/16 01:25:12;;;;;;;;;;;;;;;11.77;100.00;98885.16;3054666;19;19926;-51
2022/09/16 01:26:29;;;;;;;;;;;;;;;11.74;100.00;98882.75;3054707;19;20334;-49
2022/09/16 01:27:31;;;;;;;;;;;;;;;11.72;100.00;98887.38;3055516;19;20334;-51
2022/09/16 01:28:54;;;;;;;;;;;;;;;11.70;100.00;98886.69;3055924;19;19923;-49
2022/09/16 01:30:14;;;;;;;;;;;;;;;11.68;100.00;98891.34;3055349;19;20242;-49
2022/09/16 01:31:23;;;;;;;;;;;;;;;11.65;100.00;98886.25;3055531;19;19926;-51
2022/09/16 01:32:38;;;;;;;;;;;;;;;11.65;100.00;98880.91;3054681;19;19966;-50
2022/09/16 01:33:49;;;;;;;;;;;;;;;11.68;100.00;98877.97;3054725;19;20297;-51
2022/09/16 01:34:51;;;;;;;;;;;;;;;11.73;100.00;98877.53;3055763;19;19922;-49
2022/09/16 01:36:07;;;;;;;;;;;;;;;11.75;100.00;98872.91;3055321;19;20314;-48
2022/09/16 01:37:28;;;;;;;;;;;;;;;11.78;100.00;98870.81;3055738;19;20353;-50
2022/09/16 01:38:32;;;;;;;;;;;;;;;11.82;100.00;98866.06;3055627;19;19975;-48
2022/09/16 01:39:38;;;;;;;;;;;;;;;11.86;100.00;98873.63;3055718;19;19930;-49
2022/09/16 01:40:52;;;;;;;;;;;;;;;11.90;100.00;98872.38;3054608;19;19947;-49
2022/09/16 01:41:54;;;;;;;;;;;;;;;11.95;100.00;98877.28;3054985;19;20400;-52
2022/09/16 01:43:02;;;;;;;;;;;;;;;11.99;100.00;98873.31;3055545;19;20378;-51
2022/09/16 01:44:12;;;;;;;;;;;;;;;12.05;100.00;98867.44;3055830;19;19914;-50
2022/09/16 01:45:23;;;;;;;;;;;;;;;12.12;100.00;98873.03;3055637;19;19931;-51
2022/09/16 01:46:30;;;;;;;;;;;;;;;12.19;100.00;98874.16;3055498;19;19982;-50
2022/09/16 01:47:38;;;;;;;;;;;;;;;12.25;100.00;98881.59;3055725;19;20341;-53
2022/09/16 01:48:44;;;;;;;;;;;;;;;12.30;100.00;98886.53;3054614;19;20377;-50
2022/09/16 01:49:50;;;;;;;;;;;;;;;12.34;100.00;98878.03;3054840;19;20321;-51
2022/09/16 01:51:00;;;;;;;;;;;;;;;12.39;100.00;98891.84;3054629;19;19943;-49
2022/09/16 01:52:10;;;;;;;;;;;;;;;12.45;100.00;98885.88;3054689;19;19919;-51
2022/09/16 01:53:14;;;;;;;;;;;;;;;12.51;100.00;98889.84;3054623;19;19974;-48
2022/09/16 01:54:33;;;;;;;;;;;;;;;12.53;100.00;98894.06;3055473;19;19982;-52
2022/09/16 01:56:10;;;;;;;;;;;;;;;12.58;100.00;98899.78;3055475;19;19974;-49
2022/09/16 01:57:22;;;;;;;;;;;;;;;12.62;100.00;98906.56;3053704;19;20585;-49
2022/09/16 01:58:50;;;;;;;;;;;;;;;12.67;100.00;98910.63;3054774;19;20405;-51
2022/09/16 02:00:27;;;;;;;;;;;;;;;12.71;100.00;98912.00;3054410;19;19919;-49
2022/09/16 02:01:31;;;;;;;;;;;;;;;12.75;100.00;98913.41;3056193;19;19944;-49
2022/09/16 02:02:54;;;;;;;;;;;;;;;12.77;100.00;98927.50;3057925;19;19935;-49
2022/09/16 02:03:57;;;;;;;;;;;;;;;12.81;100.00;98923.53;3058538;19;19919;-50
2022/09/16 02:05:02;;;;;;;;;;;;;;;12.83;100.00;98921.53;3057360;19;19915;-50
2022/09/16 02:06:06;;;;;;;;;;;;;;;12.85;100.00;98928.44;3058526;19;20022;-50
2022/09/16 02:07:11;;;;;;;;;;;;;;;12.84;100.00;98926.75;3057426;19;19929;-51
2022/09/16 02:08:14;;;;;;;;;;;;;;;12.87;100.00;98933.66;3057906;19;19998;-49
2022/09/16 02:09:20;;;;;;;;;;;;;;;12.90;100.00;98938.72;3057128;19;20335;-51
2022/09/16 02:10:24;;;;;;;;;;;;;;;12.91;100.00;98935.91;3057349;19;19929;-50
2022/09/16 02:11:28;;;;;;;;;;;;;;;12.94;100.00;98956.16;3057354;19;19928;-50
2022/09/16 02:12:31;;;;;;;;;;;;;;;12.93;100.00;98959.81;3057645;19;19974;-50
2022/09/16 02:13:36;;;;;;;;;;;;;;;12.92;100.00;98955.50;3057147;19;19954;-51
2022/09/16 02:14:39;;;;;;;;;;;;;;;12.91;100.00;98957.31;3057549;19;19954;-49
2022/09/16 02:15:43;;;;;;;;;;;;;;;12.91;100.00;98961.84;3056619;19;19974;-51
2022/09/16 02:16:54;;;;;;;;;;;;;;;12.88;100.00;98960.28;3058555;19;19947;-51
2022/09/16 02:18:03;;;;;;;;;;;;;;;12.86;100.00;98958.75;3058248;19;20256;-51
2022/09/16 02:19:08;;;;;;;;;;;;;;;12.82;100.00;98960.00;3058468;19;19919;-48
2022/09/16 02:20:12;;;;;;;;;;;;;;;12.78;100.00;98967.50;3057099;19;19923;-50
2022/09/16 02:21:17;;;;;;;;;;;;;;;12.73;100.00;98975.13;3057428;19;19930;-48
2022/09/16 02:22:20;;;;;;;;;;;;;;;12.70;100.00;98974.56;3056920;19;20278;-51
2022/09/16 02:23:26;;;;;;;;;;;;;;;12.63;100.00;98966.28;3057350;19;19938;-49
2022/09/16 02:24:28;;;;;;;;;;;;;;;12.56;100.00;98968.66;3057038;19;19923;-51
2022/09/16 02:25:32;;;;;;;;;;;;;;;12.51;100.00;98960.25;3056422;19;19936;-49
2022/09/16 02:26:36;;;;;;;;;;;;;;;12.49;100.00;98967.56;3057242;19;20010;-48
2022/09/16 02:27:41;;;;;;;;;;;;;;;12.45;100.00;98971.50;3057543;19;20001;-49
2022/09/16 02:28:43;;;;;;;;;;;;;;;12.43;100.00;98960.13;3057358;19;19926;-49
2022/09/16 02:29:49;;;;;;;;;;;;;;;12.43;100.00;98960.13;3057071;19;19923;-50
2022/09/16 02:30:52;;;;;;;;;;;;;;;12.46;100.00;98965.16;3057203;19;20016;-50
2022/09/16 02:31:57;;;;;;;;;;;;;;;12.46;100.00;98962.50;3056993;19;19915;-49
2022/09/16 02:33:01;;;;;;;;;;;;;;;12.48;100.00;98957.84;3057290;19;19919;-51
2022/09/16 02:34:09;;;;;;;;;;;;;;;12.52;100.00;98956.59;3057023;19;19926;-51
2022/09/16 02:35:12;;;;;;;;;;;;;;;12.53;100.00;98952.06;3057154;19;19982;-51
2022/09/16 02:36:18;;;;;;;;;;;;;;;12.56;100.00;98960.63;3056694;19;19966;-50
2022/09/16 02:37:27;;;;;;;;;;;;;;;12.59;100.00;98954.16;3057375;19;19932;-51
2022/09/16 02:38:33;;;;;;;;;;;;;;;12.60;100.00;98954.03;3056938;19;19914;-50
2022/09/16 02:39:36;;;;;;;;;;;;;;;12.63;100.00;98959.09;3057142;19;19998;-50
2022/09/16 02:40:45;;;;;;;;;;;;;;;12.68;100.00;98960.50;3056620;19;19919;-50
2022/09/16 02:41:48;;;;;;;;;;;;;;;12.71;100.00;98957.50;3057350;19;19919;-49
2022/09/16 02:42:52;;;;;;;;;;;;;;;12.73;100.00;98958.22;3056828;19;20557;-52
2022/09/16 02:43:54;;;;;;;;;;;;;;;12.76;100.00;98961.44;3057415;19;20306;-51
2022/09/16 02:44:58;;;;;;;;;;;;;;;12.80;100.00;98953.97;3055470;19;20716;-51
2022/09/16 02:46:06;;;;;;;;;;;;;;;12.82;100.00;98963.53;3056059;19;19922;-49
2022/09/16 02:47:11;;;;;;;;;;;;;;;12.85;100.00;98959.72;3057194;19;19940;-50
2022/09/16 02:48:36;;;;;;;;;;;;;;;12.86;100.00;98950.72;3058193;19;20071;-52
2022/09/16 02:49:43;;;;;;;;;;;;;;;12.87;100.00;98960.44;3056108;19;19982;-50
2022/09/16 02:50:51;;;;;;;;;;;;;;;12.90;100.00;98961.00;3057553;19;19922;-50
2022/09/16 02:52:14;;;;;;;;;;;;;;;12.94;100.00;98966.88;3057972;19;19947;-50
2022/09/16 02:53:35;;;;;;;;;;;;;;;12.94;100.00;98966.88;3056718;19;19974;-49
2022/09/16 02:54:48;;;;;;;;;;;;;;;12.93;100.00;98966.03;3057509;19;19992;-50
2022/09/16 02:55:52;;;;;;;;;;;;;;;12.93;100.00;98973.22;3057798;19;19947;-51
2022/09/16 02:56:57;;;;;;;;;;;;;;;12.90;100.00;98968.19;3056852;19;19922;-49
2022/09/16 02:57:59;;;;;;;;;;;;;;;12.87;100.00;98968.47;3056854;19;19933;-50
2022/09/16 02:59:04;;;;;;;;;;;;;;;12.83;100.00;98964.38;3056534;19;19935;-50
2022/09/16 03:00:06;;;;;;;;;;;;;;;12.79;100.00;98965.69;3056796;19;19938;-51
2022/09/16 03:01:11;;;;;;;;;;;;;;;12.74;100.00;98970.59;3057364;19;19927;-49
2022/09/16 03:02:16;;;;;;;;;;;;;;;12.70;100.00;98969.19;3056877;19;19947;-51
2022/09/16 03:03:17;;;;;;;;;;;;;;;12.66;100.00;98965.16;3056728;19;20026;-50
2022/09/16 03:04:22;;;;;;;;;;;;;;;12.62;100.00;98962.75;3056453;19;20562;-50
2022/09/16 03:05:30;;;;;;;;;;;;;;;12.56;100.00;98962.47;3056394;19;19985;-49
2022/09/16 03:06:35;;;;;;;;;;;;;;;12.50;100.00;98971.94;3057603;19;19923;-49
2022/09/16 03:07:37;;;;;;;;;;;;;;;12.45;100.00;98960.81;3057527;19;19927;-51
2022/09/16 03:08:41;;;;;;;;;;;;;;;12.42;100.00;98963.78;3056848;19;19927;-51
2022/09/16 03:09:47;;;;;;;;;;;;;;;12.38;100.00;98965.06;3056369;19;19940;-49
2022/09/16 03:10:49;;;;;;;;;;;;;;;12.31;100.00;98963.09;3056778;19;19974;-51
2022/09/16 03:11:56;;;;;;;;;;;;;;;12.28;100.00;98958.88;3055771;19;19923;-49
2022/09/16 03:13:04;;;;;;;;;;;;;;;12.24;100.00;98957.47;3056874;19;19995;-51
2022/09/16 03:14:35;;;;;;;;;;;;;;;12.16;100.00;98955.50;3056802;19;20335;-49
2022/09/16 03:15:46;;;;;;;;;;;;;;;12.08;100.00;98957.19;3056712;19;19919;-49
2022/09/16 03:17:02;;;;;;;;;;;;;;;12.07;100.00;98966.22;3057453;19;19939;-50
2022/09/16 03:18:08;;;;;;;;;;;;;;;12.01;100.00;98958.75;3057425;19;19982;-50
2022/09/16 03:19:23;;;;;;;;;;;;;;;11.98;100.00;98959.88;3057473;19;20231;-50
2022/09/16 03:21:49;;;;;;;;;;;;;;;11.87;100.00;98947.47;3054770;19;19927;-49
2022/09/16 03:22:57;;;;;;;;;;;;;;;11.86;100.00;98951.13;3055470;19;20326;-50
2022/09/16 03:24:04;;;;;;;;;;;;;;;11.84;100.00;98952.25;3058463;19;20447;-49
2022/09/16 03:25:25;;;;;;;;;;;;;;;11.82;100.00;98940.88;3057176;19;19974;-50
2022/09/16 03:26:44;;;;;;;;;;;;;;;11.81;100.00;98944.53;3056091;19;19923;-51
2022/09/16 03:27:57;;;;;;;;;;;;;;;11.77;100.00;98941.28;3056392;19;19943;-50
2022/09/16 03:29:04;;;;;;;;;;;;;;;11.75;100.00;98943.25;3056326;19;20204;-50
2022/09/16 03:30:07;;;;;;;;;;;;;;;11.73;100.00;98942.50;3056323;19;20008;-51
2022/09/16 03:31:12;;;;;;;;;;;;;;;11.67;100.00;98935.06;3056135;19;19923;-48
2022/09/16 03:32:16;;;;;;;;;;;;;;;11.65;100.00;98934.34;3056448;19;19930;-51
2022/09/16 03:33:23;;;;;;;;;;;;;;;11.62;100.00;98939.97;3056743;19;19994;-51
2022/09/16 03:34:30;;;;;;;;;;;;;;;11.59;100.00;98934.94;3057495;19;19974;-50
2022/09/16 03:35:45;;;;;;;;;;;;;;;11.57;100.00;98936.88;3057196;19;19998;-51
2022/09/16 03:36:52;;;;;;;;;;;;;;;11.55;100.00;98933.50;3056201;19;19927;-50
2022/09/16 03:37:54;;;;;;;;;;;;;;;11.52;100.00;98939.97;3056217;19;20346;-49
2022/09/16 03:38:58;;;;;;;;;;;;;;;11.50;100.00;98933.06;3055933;19;19931;-49
2022/09/16 03:40:05;;;;;;;;;;;;;;;11.49;100.00;98939.38;3056178;19;19946;-51
2022/09/16 03:41:09;;;;;;;;;;;;;;;11.47;100.00;98933.38;3055934;19;20369;-48
2022/09/16 03:42:12;;;;;;;;;;;;;;;11.42;100.00;98930.25;3056225;19;19982;-50
2022/09/16 03:43:17;;;;;;;;;;;;;;;11.43;100.00;98923.94;3055801;19;19923;-48
2022/09/16 03:44:18;;;;;;;;;;;;;;;11.42;100.00;98939.09;3056223;19;19923;-50
2022/09/16 03:45:23;;;;;;;;;;;;;;;11.39;100.00;98930.50;3056915;19;20547;-51
2022/09/16 03:46:27;;;;;;;;;;;;;;;11.42;100.00;98930.25;3055525;19;19927;-49
2022/09/16 03:47:32;;;;;;;;;;;;;;;11.41;100.00;98926.72;3056007;19;20011;-51
2022/09/16 03:48:34;;;;;;;;;;;;;;;11.42;100.00;98927.56;3056997;19;19911;-51
2022/09/16 03:49:38;;;;;;;;;;;;;;;11.42;100.00;98924.91;3056389;19;19923;-51
2022/09/16 03:50:40;;;;;;;;;;;;;;;11.42;100.00;98924.91;3056736;19;19939;-49
2022/09/16 03:51:44;;;;;;;;;;;;;;;11.41;100.00;98920.53;3056801;19;19978;-48
2022/09/16 03:52:46;;;;;;;;;;;;;;;11.40;100.00;98927.72;3057086;19;20456;-48
2022/09/16 03:53:51;;;;;;;;;;;;;;;11.42;100.00;98922.25;3056534;19;19915;-50
2022/09/16 03:54:55;;;;;;;;;;;;;;;11.44;100.00;98920.28;3056599;19;20340;-51
2022/09/16 03:55:57;;;;;;;;;;;;;;;11.46;100.00;98929.84;3056484;19;19926;-50
2022/09/16 03:57:02;;;;;;;;;;;;;;;11.50;100.00;98920.56;3056735;19;19922;-48
2022/09/16 03:58:04;;;;;;;;;;;;;;;11.53;100.00;98919.44;3056748;19;19922;-49
2022/09/16 03:59:08;;;;;;;;;;;;;;;11.54;100.00;98911.28;3056874;19;20032;-50
2022/09/16 04:00:10;;;;;;;;;;;;;;;11.58;100.00;98906.53;3056614;19;19923;-50
2022/09/16 04:01:15;;;;;;;;;;;;;;;11.60;100.00;98925.91;3056990;19;19986;-49
2022/09/16 04:02:17;;;;;;;;;;;;;;;11.61;100.00;98922.25;3056547;19;19926;-51
2022/09/16 04:03:22;;;;;;;;;;;;;;;11.62;100.00;98923.94;3056163;19;19922;-50
2022/09/16 04:04:24;;;;;;;;;;;;;;;11.62;100.00;98918.59;3055708;19;19982;-50
2022/09/16 04:05:28;;;;;;;;;;;;;;;11.64;100.00;98921.97;3056561;19;19926;-49
2022/09/16 04:06:30;;;;;;;;;;;;;;;11.66;100.00;98920.03;3055992;19;19915;-51
2022/09/16 04:07:35;;;;;;;;;;;;;;;11.68;100.00;98918.06;3056375;19;19939;-49
2022/09/16 04:08:38;;;;;;;;;;;;;;;11.69;100.00;98929.59;3056496;19;20007;-50
2022/09/16 04:09:43;;;;;;;;;;;;;;;11.70;100.00;98921.44;3056489;19;20326;-52
2022/09/16 04:10:58;;;;;;;;;;;;;;;11.77;100.00;98919.06;3042510;19;19939;-53
2022/09/16 04:12:03;;;;;;;;;;;;;;;11.77;100.00;98922.59;3004651;19;19932;-53
2022/09/16 04:13:08;;;;;;;;;;;;;;;11.83;100.00;98932.69;3011233;19;19915;-52
2022/09/16 04:14:12;;;;;;;;;;;;;;;11.86;100.00;98924.41;3052487;19;20273;-51
2022/09/16 04:15:14;;;;;;;;;;;;;;;11.93;100.00;98927.38;3052078;19;19915;-51
2022/09/16 04:16:22;;;;;;;;;;;;;;;11.96;100.00;98928.91;3054741;19;19950;-52
2022/09/16 04:17:24;;;;;;;;;;;;;;;12.01;100.00;98938.19;3055427;19;19927;-50
2022/09/16 04:18:29;;;;;;;;;;;;;;;12.04;100.00;98934.41;3055419;19;19923;-49
2022/09/16 04:19:30;;;;;;;;;;;;;;;12.06;100.00;98935.13;3057083;19;19927;-52
2022/09/16 04:20:35;;;;;;;;;;;;;;;12.10;100.00;98936.50;3055279;19;19922;-52
2022/09/16 04:21:37;;;;;;;;;;;;;;;12.14;100.00;98936.09;3055346;19;19942;-50
2022/09/16 04:22:41;;;;;;;;;;;;;;;12.19;100.00;98935.66;3055682;19;20331;-51
2022/09/16 04:23:43;;;;;;;;;;;;;;;12.20;100.00;98940.00;3056154;19;19939;-51
2022/09/16 04:24:47;;;;;;;;;;;;;;;12.23;100.00;98939.72;3056350;19;19926;-49
2022/09/16 04:25:56;;;;;;;;;;;;;;;12.21;100.00;98939.88;3056783;19;20194;-52
2022/09/16 04:27:00;;;;;;;;;;;;;;;12.22;100.00;98940.72;3055801;19;20214;-48
2022/09/16 04:28:02;;;;;;;;;;;;;;;12.19;100.00;98944.53;3055809;19;19988;-51
2022/09/16 04:29:06;;;;;;;;;;;;;;;12.18;100.00;98944.69;3055137;19;19919;-51
2022/09/16 04:30:11;;;;;;;;;;;;;;;12.17;100.00;98945.66;3055077;19;19960;-52
2022/09/16 04:31:14;;;;;;;;;;;;;;;12.16;100.00;98949.31;3056427;19;19927;-50
2022/09/16 04:32:18;;;;;;;;;;;;;;;12.10;100.00;98944.53;3055205;19;20310;-51
2022/09/16 04:33:20;;;;;;;;;;;;;;;12.07;100.00;98932.31;3053701;19;20508;-49
2022/09/16 04:34:25;;;;;;;;;;;;;;;12.14;100.00;98945.94;3055066;19;19945;-51
2022/09/16 04:35:27;;;;;;;;;;;;;;;12.16;100.00;98957.34;3054412;19;20338;-49
2022/09/16 04:36:32;;;;;;;;;;;;;;;12.18;100.00;98958.03;3055202;19;19922;-51
2022/09/16 04:37:34;;;;;;;;;;;;;;;12.15;100.00;98952.97;3054512;19;20006;-49
2022/09/16 04:38:38;;;;;;;;;;;;;;;12.13;100.00;98957.63;3054969;19;19922;-49
2022/09/16 04:39:40;;;;;;;;;;;;;;;12.14;100.00;98956.63;3053818;19;20103;-51
2022/09/16 04:40:44;;;;;;;;;;;;;;;12.13;100.00;98965.63;3054490;19;20345;-49
2022/09/16 04:41:46;;;;;;;;;;;;;;;12.12;100.00;98974.63;3054590;19;20383;-52
2022/09/16 04:42:51;;;;;;;;;;;;;;;12.13;100.00;98982.53;3052752;19;19944;-50
2022/09/16 04:43:57;;;;;;;;;;;;;;;12.13;100.00;98981.69;3055799;19;19923;-49
2022/09/16 04:45:02;;;;;;;;;;;;;;;12.14;100.00;98978.88;3056209;19;20007;-50
2022/09/16 04:46:04;;;;;;;;;;;;;;;12.11;100.00;98983.66;3055752;19;19990;-51
2022/09/16 04:47:08;;;;;;;;;;;;;;;12.10;100.00;98988.16;3055126;19;20011;-51
2022/09/16 04:48:10;;;;;;;;;;;;;;;12.09;100.00;98989.13;3056147;19;19919;-49
2022/09/16 04:49:14;;;;;;;;;;;;;;;12.09;100.00;98990.97;3056930;19;19965;-49
2022/09/16 04:50:16;;;;;;;;;;;;;;;12.07;100.00;98987.59;3054780;19;20405;-51
2022/09/16 04:51:21;;;;;;;;;;;;;;;12.08;100.00;98989.25;3054390;19;19919;-49
2022/09/16 04:52:23;;;;;;;;;;;;;;;12.05;100.00;98984.22;3053776;19;20417;-49
2022/09/16 04:53:27;;;;;;;;;;;;;;;12.07;100.00;98987.59;3054954;19;19934;-49
2022/09/16 04:54:29;;;;;;;;;;;;;;;12.06;100.00;98991.25;3055863;19;19994;-49
2022/09/16 04:55:34;;;;;;;;;;;;;;;12.07;100.00;98992.94;3054589;19;20368;-49
2022/09/16 04:56:35;;;;;;;;;;;;;;;12.08;100.00;98995.47;3055880;19;19926;-50
2022/09/16 04:57:40;;;;;;;;;;;;;;;12.11;100.00;99005.03;3055693;19;19926;-49
2022/09/16 04:58:43;;;;;;;;;;;;;;;12.10;100.00;99003.34;3055425;19;19983;-49
2022/09/16 04:59:47;;;;;;;;;;;;;;;12.09;100.00;98996.31;3054997;19;20388;-48
2022/09/16 05:00:49;;;;;;;;;;;;;;;12.12;100.00;99002.22;3053958;19;20261;-51
2022/09/16 05:01:54;;;;;;;;;;;;;;;12.14;100.00;99010.09;3054168;19;19922;-53
2022/09/16 05:02:56;;;;;;;;;;;;;;;12.15;100.00;99014.47;3054914;19;19923;-49
2022/09/16 05:04:02;;;;;;;;;;;;;;;12.16;100.00;99002.78;3055987;19;19922;-50
2022/09/16 05:05:04;;;;;;;;;;;;;;;12.17;100.00;99005.34;3054434;19;20651;-52
2022/09/16 05:06:13;;;;;;;;;;;;;;;12.20;100.00;99010.38;3054373;19;19926;-50
2022/09/16 05:07:21;;;;;;;;;;;;;;;12.22;100.00;99007.56;3054548;19;19921;-50
2022/09/16 05:08:25;;;;;;;;;;;;;;;12.23;100.00;99003.91;3055164;19;20383;-49
2022/09/16 05:09:27;;;;;;;;;;;;;;;12.21;100.00;99009.41;3052479;19;19931;-49
2022/09/16 05:10:31;;;;;;;;;;;;;;;12.22;100.00;99003.06;3053357;19;19918;-52
2022/09/16 05:11:35;;;;;;;;;;;;;;;12.18;100.00;98984.78;3056431;19;19950;-51
2022/09/16 05:12:40;;;;;;;;;;;;;;;12.25;100.00;99002.78;3054013;19;19919;-47
2022/09/16 05:13:42;;;;;;;;;;;;;;;12.28;100.00;99007.03;3053064;19;19923;-51
2022/09/16 05:14:46;;;;;;;;;;;;;;;12.33;100.00;99011.94;3053580;19;20333;-49
2022/09/16 05:15:48;;;;;;;;;;;;;;;12.33;100.00;99010.09;3055516;19;20033;-51
2022/09/16 05:16:54;;;;;;;;;;;;;;;12.37;100.00;99013.34;3052372;19;20360;-49
2022/09/16 05:17:56;;;;;;;;;;;;;;;12.37;100.00;99014.19;3053690;19;19958;-52
2022/09/16 05:19:03;;;;;;;;;;;;;;;12.40;100.00;99018.41;3053231;19;19919;-51
2022/09/16 05:20:05;;;;;;;;;;;;;;;12.44;100.00;99020.66;3053719;19;19954;-53
2022/09/16 05:21:11;;;;;;;;;;;;;;;12.44;100.00;99023.31;3053511;19;19943;-51
2022/09/16 05:22:15;;;;;;;;;;;;;;;12.52;100.00;99026.16;3054572;19;19928;-51
2022/09/16 05:23:17;;;;;;;;;;;;;;;12.53;100.00;99027.84;3052538;19;19923;-50
2022/09/16 05:24:22;;;;;;;;;;;;;;;12.56;100.00;99030.22;3053875;19;19927;-49
2022/09/16 05:25:23;;;;;;;;;;;;;;;12.61;100.00;99036.00;3054330;19;19944;-48
2022/09/16 05:26:29;;;;;;;;;;;;;;;12.69;100.00;99026.38;3054732;19;19972;-49
2022/09/16 05:27:31;;;;;;;;;;;;;;;12.73;100.00;99030.47;3054566;19;19923;-50
2022/09/16 05:28:37;;;;;;;;;;;;;;;12.80;100.00;99036.97;3056128;19;20328;-50
2022/09/16 05:29:41;;;;;;;;;;;;;;;12.87;100.00;99040.75;3053546;19;20364;-49
2022/09/16 05:30:43;;;;;;;;;;;;;;;12.95;100.00;99038.19;3054908;19;19935;-51
2022/09/16 05:31:49;;;;;;;;;;;;;;;12.97;100.00;99046.91;3055124;19;19926;-53
2022/09/16 05:32:54;;;;;;;;;;;;;;;12.97;100.00;99046.91;3055584;19;19986;-50
2022/09/16 05:34:02;;;;;;;;;;;;;;;12.98;100.00;99053.97;3054778;19;19939;-50
2022/09/16 05:35:04;;;;;;;;;;;;;;;13.05;100.00;99057.72;3054461;19;19922;-51
2022/09/16 05:36:13;;;;;;;;;;;;;;;13.13;100.00;99073.09;3058005;19;19930;-53
2022/09/16 05:37:18;;;;;;;;;;;;;;;13.23;100.00;99066.75;3057923;19;20407;-49
2022/09/16 05:38:20;;;;;;;;;;;;;;;13.32;100.00;99063.19;3058997;19;20412;-49
2022/09/16 05:39:25;;;;;;;;;;;;;;;13.38;100.00;99068.97;3057846;19;19915;-50